Time;durP1;ratioP1;P1;durP2;ratioP2;P2;SDS_P1;SDS_P2;PMS_P1;PMS_P2;Temp;Humidity;BMP_temperature;BMP_pressure;BME280_temperature;BME280_humidity;BME280_pressure;Samples;Min_cycle;Max_cycle;Signal;HPM_P1;HPM_P2
2022/05/22 00:01:53;;;;;;;2.88;1.55;;;;;;;;;;5096160;28;20232;-18
2022/05/22 00:04:20;;;;;;;3.53;1.83;;;;;;;;;;5101627;28;20281;-19
2022/05/22 00:06:47;;;;;;;4.22;1.48;;;;;;;;;;5101591;28;20837;-18
2022/05/22 00:09:15;;;;;;;2.55;1.60;;;;;;;;;;5100905;28;20240;-19
2022/05/22 00:11:42;;;;;;;3.58;1.70;;;;;;;;;;5097418;28;20228;-18
2022/05/22 00:14:11;;;;;;;4.68;1.70;;;;;;;;;;5097728;28;20216;-18
2022/05/22 00:16:41;;;;;;;3.90;1.60;;;;;;;;;;5100465;28;20229;-19
2022/05/22 00:19:09;;;;;;;3.60;1.83;;;;;;;;;;5096669;28;20953;-18
2022/05/22 00:21:37;;;;;;;4.00;2.22;;;;;;;;;;5101070;28;20240;-19
2022/05/22 00:24:05;;;;;;;2.55;1.45;;;;;;;;;;5104628;28;20988;-19
2022/05/22 00:26:32;;;;;;;3.88;1.77;;;;;;;;;;5098265;28;20245;-19
2022/05/22 00:28:59;;;;;;;3.80;1.70;;;;;;;;;;5099034;28;20217;-19
2022/05/22 00:31:26;;;;;;;3.03;1.98;;;;;;;;;;5097670;28;20236;-19
2022/05/22 00:33:55;;;;;;;3.17;1.65;;;;;;;;;;5101355;28;20702;-19
2022/05/22 00:36:23;;;;;;;6.55;1.90;;;;;;;;;;5101145;28;20216;-19
2022/05/22 00:38:50;;;;;;;2.13;1.80;;;;;;;;;;5101457;28;20625;-19
2022/05/22 00:41:17;;;;;;;3.78;2.10;;;;;;;;;;5100500;28;20234;-18
2022/05/22 00:43:45;;;;;;;2.90;1.85;;;;;;;;;;5100073;28;20208;-18
2022/05/22 00:46:13;;;;;;;2.72;1.60;;;;;;;;;;5100217;28;20240;-19
2022/05/22 00:48:41;;;;;;;2.92;1.60;;;;;;;;;;5096709;28;20311;-18
2022/05/22 00:51:10;;;;;;;4.28;1.90;;;;;;;;;;5092834;28;21002;-19
2022/05/22 00:53:39;;;;;;;4.82;2.10;;;;;;;;;;5099977;28;20235;-19
2022/05/22 00:56:07;;;;;;;4.55;1.90;;;;;;;;;;5103450;27;20992;-19
2022/05/22 00:58:34;;;;;;;4.65;2.08;;;;;;;;;;5097083;28;20221;-18
2022/05/22 01:01:02;;;;;;;5.53;2.08;;;;;;;;;;5102701;28;20235;-18
2022/05/22 01:03:29;;;;;;;3.75;2.10;;;;;;;;;;5104131;28;20233;-18
2022/05/22 01:05:57;;;;;;;5.88;2.30;;;;;;;;;;5098026;28;20252;-19
2022/05/22 01:08:26;;;;;;;3.90;1.80;;;;;;;;;;5095746;28;20237;-19
2022/05/22 01:10:54;;;;;;;3.47;2.00;;;;;;;;;;5101836;28;20237;-18
2022/05/22 01:13:22;;;;;;;3.58;1.75;;;;;;;;;;5099113;28;20236;-19
2022/05/22 01:15:50;;;;;;;3.20;1.67;;;;;;;;;;5105171;28;20220;-19
2022/05/22 01:18:17;;;;;;;2.95;1.95;;;;;;;;;;5094807;28;20364;-18
2022/05/22 01:20:48;;;;;;;3.38;1.90;;;;;;;;;;5102243;28;20228;-19
2022/05/22 01:23:17;;;;;;;3.83;2.08;;;;;;;;;;5100574;28;20241;-18
2022/05/22 01:25:44;;;;;;;4.07;2.28;;;;;;;;;;5101142;28;20242;-18
2022/05/22 01:28:12;;;;;;;3.85;1.98;;;;;;;;;;5100325;28;20825;-19
2022/05/22 01:30:39;;;;;;;5.75;1.90;;;;;;;;;;5096135;28;20633;-19
2022/05/22 01:33:06;;;;;;;4.07;2.00;;;;;;;;;;5103523;28;20228;-19
2022/05/22 01:35:35;;;;;;;4.40;2.10;;;;;;;;;;5100446;28;20213;-18
2022/05/22 01:38:03;;;;;;;6.13;2.13;;;;;;;;;;5098825;28;21073;-19
2022/05/22 01:40:32;;;;;;;3.15;2.00;;;;;;;;;;5096947;28;20236;-19
2022/05/22 01:42:59;;;;;;;2.70;1.80;;;;;;;;;;5098985;28;20228;-19
2022/05/22 01:45:27;;;;;;;5.13;2.30;;;;;;;;;;5099549;28;20234;-19
2022/05/22 01:47:54;;;;;;;3.28;2.20;;;;;;;;;;5097847;28;20236;-19
2022/05/22 01:50:22;;;;;;;3.65;2.00;;;;;;;;;;5100179;28;20224;-19
2022/05/22 01:52:49;;;;;;;3.13;1.60;;;;;;;;;;5101631;28;20224;-19
2022/05/22 01:55:16;;;;;;;2.97;1.88;;;;;;;;;;5097102;28;20236;-19
2022/05/22 01:57:45;;;;;;;3.90;1.83;;;;;;;;;;5096004;28;20228;-18
2022/05/22 02:00:14;;;;;;;3.13;1.92;;;;;;;;;;5099184;28;20232;-19
2022/05/22 02:02:41;;;;;;;4.68;2.05;;;;;;;;;;5099397;28;20225;-18
2022/05/22 02:05:09;;;;;;;3.28;2.00;;;;;;;;;;5095230;28;20262;-18
2022/05/22 02:10:22;;;;;;;2.25;1.77;;;;;;;;;;5097685;28;20235;-19
2022/05/22 02:12:51;;;;;;;3.38;2.00;;;;;;;;;;5099929;28;20224;-19
2022/05/22 02:15:18;;;;;;;4.47;2.17;;;;;;;;;;5096060;28;20225;-18
2022/05/22 02:17:46;;;;;;;2.42;1.88;;;;;;;;;;5098445;28;20617;-18
2022/05/22 02:20:13;;;;;;;3.53;1.80;;;;;;;;;;5095546;28;20232;-23
2022/05/22 02:22:41;;;;;;;3.55;1.88;;;;;;;;;;5119462;22;20244;-15
2022/05/22 02:25:09;;;;;;;3.25;2.10;;;;;;;;;;5107542;28;21043;-15
2022/05/22 02:27:36;;;;;;;3.97;2.30;;;;;;;;;;5111234;27;20727;-15
2022/05/22 02:30:08;;;;;;;2.85;1.73;;;;;;;;;;5111608;28;20228;-15
2022/05/22 02:32:37;;;;;;;3.08;1.98;;;;;;;;;;5110970;28;20236;-15
2022/05/22 02:35:05;;;;;;;2.83;1.98;;;;;;;;;;5111796;28;20687;-15
2022/05/22 02:37:32;;;;;;;3.42;1.83;;;;;;;;;;5111743;27;20231;-15
2022/05/22 02:40:00;;;;;;;2.25;1.77;;;;;;;;;;5111436;28;20285;-15
2022/05/22 02:42:27;;;;;;;3.05;1.90;;;;;;;;;;5111484;28;20267;-15
2022/05/22 02:44:55;;;;;;;3.20;2.05;;;;;;;;;;5111445;28;20350;-15
2022/05/22 02:47:24;;;;;;;2.97;2.03;;;;;;;;;;5110214;28;20242;-15
2022/05/22 02:49:51;;;;;;;4.20;2.03;;;;;;;;;;5110890;27;20328;-15
2022/05/22 02:52:18;;;;;;;3.55;2.00;;;;;;;;;;5111465;28;20232;-15
2022/05/22 02:54:46;;;;;;;3.05;1.85;;;;;;;;;;5111389;28;20232;-15
2022/05/22 02:57:16;;;;;;;3.53;1.95;;;;;;;;;;5111107;28;20251;-15
2022/05/22 02:59:44;;;;;;;2.80;1.85;;;;;;;;;;5110971;27;20787;-15
2022/05/22 03:02:11;;;;;;;3.75;2.00;;;;;;;;;;5110295;28;20250;-15
2022/05/22 03:04:40;;;;;;;3.42;2.00;;;;;;;;;;5107286;28;20232;-15
2022/05/22 03:07:07;;;;;;;2.53;1.92;;;;;;;;;;5111385;28;20767;-15
2022/05/22 03:09:36;;;;;;;3.00;2.08;;;;;;;;;;5111279;28;20219;-15
2022/05/22 03:12:05;;;;;;;2.65;1.85;;;;;;;;;;5110948;27;20232;-15
2022/05/22 03:14:32;;;;;;;2.28;1.77;;;;;;;;;;5111035;28;20264;-15
2022/05/22 03:17:00;;;;;;;2.63;1.63;;;;;;;;;;5109799;28;20321;-15
2022/05/22 03:19:27;;;;;;;3.35;1.70;;;;;;;;;;5112238;27;20270;-15
2022/05/22 03:21:56;;;;;;;3.10;1.80;;;;;;;;;;5113283;27;20285;-15
2022/05/22 03:24:24;;;;;;;2.83;1.80;;;;;;;;;;5114852;28;20277;-15
2022/05/22 03:26:51;;;;;;;3.85;2.05;;;;;;;;;;5114617;28;20303;-15
2022/05/22 03:29:18;;;;;;;4.40;1.80;;;;;;;;;;5114556;28;20318;-15
2022/05/22 03:31:46;;;;;;;4.38;1.95;;;;;;;;;;5114499;28;20613;-15
2022/05/22 03:34:13;;;;;;;3.58;2.00;;;;;;;;;;5113981;27;20223;-15
2022/05/22 03:36:40;;;;;;;3.20;1.67;;;;;;;;;;5106114;28;20231;-15
2022/05/22 03:39:09;;;;;;;3.55;1.88;;;;;;;;;;5110307;28;20232;-15
2022/05/22 03:41:39;;;;;;;2.17;1.95;;;;;;;;;;5114700;28;21605;-15
2022/05/22 03:44:06;;;;;;;3.55;2.00;;;;;;;;;;5113722;27;20236;-15
2022/05/22 03:46:34;;;;;;;3.17;1.52;;;;;;;;;;5109192;28;20234;-15
2022/05/22 03:49:01;;;;;;;2.67;1.67;;;;;;;;;;5114346;28;20752;-15
2022/05/22 03:51:28;;;;;;;2.42;1.60;;;;;;;;;;5114364;28;20236;-15
2022/05/22 03:53:56;;;;;;;1.70;1.30;;;;;;;;;;5114146;28;20224;-15
2022/05/22 03:56:24;;;;;;;3.95;1.80;;;;;;;;;;5113223;28;20231;-15
2022/05/22 03:58:51;;;;;;;2.38;1.50;;;;;;;;;;5114493;28;20982;-14
2022/05/22 04:01:19;;;;;;;2.67;1.60;;;;;;;;;;5113994;28;20227;-14
2022/05/22 04:03:46;;;;;;;2.65;1.65;;;;;;;;;;5114290;28;20231;-15
2022/05/22 04:06:14;;;;;;;2.80;1.90;;;;;;;;;;5113337;27;21113;-16
2022/05/22 04:08:41;;;;;;;2.67;1.80;;;;;;;;;;5114131;28;20232;-14
2022/05/22 04:11:09;;;;;;;2.60;1.75;;;;;;;;;;5105158;28;20385;-15
2022/05/22 04:13:38;;;;;;;2.55;1.60;;;;;;;;;;5113968;28;20220;-15
2022/05/22 04:16:05;;;;;;;2.35;1.67;;;;;;;;;;5113834;28;20224;-16
2022/05/22 04:18:32;;;;;;;1.65;1.45;;;;;;;;;;5113666;28;20242;-15
2022/05/22 04:21:00;;;;;;;2.47;1.58;;;;;;;;;;5113126;28;20729;-15
2022/05/22 04:26:12;;;;;;;2.65;1.65;;;;;;;;;;5114199;28;20216;-15
2022/05/22 04:28:41;;;;;;;2.95;1.67;;;;;;;;;;5113123;27;21097;-14
2022/05/22 04:31:08;;;;;;;2.88;1.48;;;;;;;;;;5107912;28;20608;-15
2022/05/22 04:33:35;;;;;;;2.50;1.63;;;;;;;;;;5113625;28;20251;-15
2022/05/22 04:36:04;;;;;;;2.70;1.65;;;;;;;;;;5112489;28;20216;-15
2022/05/22 04:38:31;;;;;;;1.60;1.40;;;;;;;;;;5112698;27;20236;-15
2022/05/22 04:41:00;;;;;;;1.60;1.35;;;;;;;;;;5113396;28;20699;-15
2022/05/22 04:43:28;;;;;;;2.65;1.60;;;;;;;;;;5113360;28;20718;-15
2022/05/22 04:45:57;;;;;;;4.30;2.03;;;;;;;;;;5113210;27;20238;-15
2022/05/22 04:48:24;;;;;;;3.35;1.33;;;;;;;;;;5103565;28;20240;-15
2022/05/22 04:50:52;;;;;;;1.65;1.35;;;;;;;;;;5110456;27;20236;-15
2022/05/22 04:53:19;;;;;;;2.35;1.40;;;;;;;;;;5113331;28;20216;-15
2022/05/22 04:55:47;;;;;;;2.13;1.20;;;;;;;;;;5113052;28;20251;-15
2022/05/22 04:58:16;;;;;;;2.30;1.40;;;;;;;;;;5112906;28;20236;-15
2022/05/22 05:00:43;;;;;;;1.83;1.30;;;;;;;;;;5111418;27;20228;-15
2022/05/22 05:03:12;;;;;;;1.73;1.38;;;;;;;;;;5112727;28;20722;-15
2022/05/22 05:05:39;;;;;;;2.42;1.52;;;;;;;;;;5109171;28;20238;-15
2022/05/22 05:08:07;;;;;;;3.28;1.50;;;;;;;;;;5113301;28;20224;-15
2022/05/22 05:10:34;;;;;;;2.38;1.50;;;;;;;;;;5113044;28;20227;-16
2022/05/22 05:13:02;;;;;;;2.53;1.35;;;;;;;;;;5112369;27;20232;-15
2022/05/22 05:15:30;;;;;;;3.45;1.55;;;;;;;;;;5112939;28;21006;-15
2022/05/22 05:17:57;;;;;;;2.20;1.25;;;;;;;;;;5113137;28;20254;-15
2022/05/22 05:20:26;;;;;;;3.05;1.10;;;;;;;;;;5102755;28;20212;-15
2022/05/22 05:22:53;;;;;;;3.05;1.85;;;;;;;;;;5105443;28;20236;-15
2022/05/22 05:25:20;;;;;;;2.42;1.45;;;;;;;;;;5112632;28;20227;-15
2022/05/22 05:27:51;;;;;;;2.92;1.35;;;;;;;;;;5112529;28;20290;-15
2022/05/22 05:30:19;;;;;;;2.08;1.40;;;;;;;;;;5104623;28;20281;-15
2022/05/22 05:32:46;;;;;;;2.35;1.40;;;;;;;;;;5103557;28;21072;-15
2022/05/22 05:35:14;;;;;;;2.03;1.40;;;;;;;;;;5110142;27;20989;-15
2022/05/22 05:37:42;;;;;;;2.22;1.48;;;;;;;;;;5112362;28;20232;-15
2022/05/22 05:40:10;;;;;;;1.73;1.30;;;;;;;;;;5108721;28;20216;-15
2022/05/22 05:42:37;;;;;;;2.13;1.40;;;;;;;;;;5099327;28;20224;-15
2022/05/22 05:45:06;;;;;;;1.85;1.50;;;;;;;;;;5104387;27;20250;-15
2022/05/22 05:47:33;;;;;;;3.20;1.30;;;;;;;;;;5112329;28;20303;-15
2022/05/22 05:50:01;;;;;;;2.33;1.40;;;;;;;;;;5111997;28;20216;-15
2022/05/22 05:52:28;;;;;;;2.75;1.50;;;;;;;;;;5112344;28;20281;-15
2022/05/22 05:55:02;;;;;;;2.17;1.30;;;;;;;;;;5111987;28;20232;-16
2022/05/22 05:57:29;;;;;;;1.60;1.48;;;;;;;;;;5111775;27;20228;-16
2022/05/22 05:59:56;;;;;;;2.05;1.38;;;;;;;;;;5112299;28;20224;-16
2022/05/22 06:02:24;;;;;;;3.70;1.60;;;;;;;;;;5111751;28;20212;-16
2022/05/22 06:04:51;;;;;;;1.42;1.17;;;;;;;;;;5111862;28;20289;-16
2022/05/22 06:07:19;;;;;;;2.15;1.20;;;;;;;;;;5106860;27;20720;-16
2022/05/22 06:09:46;;;;;;;2.55;1.23;;;;;;;;;;5111998;28;20226;-16
2022/05/22 06:12:15;;;;;;;1.35;1.13;;;;;;;;;;5111942;28;20683;-16
2022/05/22 06:14:42;;;;;;;1.85;1.25;;;;;;;;;;5103046;28;20238;-16
2022/05/22 06:17:10;;;;;;;3.00;1.27;;;;;;;;;;5111499;28;20369;-16
2022/05/22 06:19:55;;;;;;;1.40;1.20;;;;;;;;;;5112041;28;20216;-16
2022/05/22 06:22:29;;;;;;;2.95;1.40;;;;;;;;;;5110184;28;20818;-16
2022/05/22 06:24:57;;;;;;;2.30;1.30;;;;;;;;;;5111846;28;20232;-16
2022/05/22 06:27:26;;;;;;;4.07;1.15;;;;;;;;;;5112020;28;20227;-16
2022/05/22 06:29:53;;;;;;;1.75;1.20;;;;;;;;;;5110897;27;20238;-16
2022/05/22 06:32:21;;;;;;;2.55;1.30;;;;;;;;;;5111798;28;21052;-16
2022/05/22 06:34:48;;;;;;;1.50;1.20;;;;;;;;;;5111752;28;20232;-16
2022/05/22 06:37:17;;;;;;;3.90;1.70;;;;;;;;;;5111979;28;20228;-16
2022/05/22 06:39:49;;;;;;;2.40;1.38;;;;;;;;;;5110269;27;20239;-16
2022/05/22 06:42:17;;;;;;;1.58;1.17;;;;;;;;;;5102493;28;20224;-16
2022/05/22 06:44:50;;;;;;;1.30;1.20;;;;;;;;;;5100045;28;20232;-16
2022/05/22 06:47:17;;;;;;;2.05;1.25;;;;;;;;;;5111352;28;20220;-16
2022/05/22 06:49:48;;;;;;;4.80;1.40;;;;;;;;;;5111517;28;20987;-16
2022/05/22 06:52:15;;;;;;;2.53;1.40;;;;;;;;;;5111000;27;20762;-16
2022/05/22 06:54:43;;;;;;;1.77;1.33;;;;;;;;;;5112715;27;20220;-16
2022/05/22 06:57:10;;;;;;;1.42;1.20;;;;;;;;;;5115406;28;20224;-16
2022/05/22 06:59:37;;;;;;;1.88;1.63;;;;;;;;;;5111396;28;20216;-16
2022/05/22 07:02:06;;;;;;;1.30;1.20;;;;;;;;;;5111675;27;20232;-16
2022/05/22 07:04:33;;;;;;;2.47;1.20;;;;;;;;;;5102857;28;20232;-15
2022/05/22 07:07:01;;;;;;;3.03;1.40;;;;;;;;;;5105674;28;20731;-15
2022/05/22 07:09:29;;;;;;;2.55;2.08;;;;;;;;;;5106591;28;20964;-15
2022/05/22 07:11:57;;;;;;;2.60;1.35;;;;;;;;;;5115081;28;20224;-15
2022/05/22 07:14:24;;;;;;;2.65;1.25;;;;;;;;;;5114188;27;20327;-15
2022/05/22 07:16:52;;;;;;;3.33;1.45;;;;;;;;;;5114762;28;20712;-15
2022/05/22 07:19:20;;;;;;;2.28;1.20;;;;;;;;;;5115151;27;20343;-15
2022/05/22 07:21:48;;;;;;;3.58;1.40;;;;;;;;;;5105203;28;20250;-16
2022/05/22 07:24:15;;;;;;;2.25;1.40;;;;;;;;;;5107851;27;20234;-15
2022/05/22 07:26:42;;;;;;;3.03;1.45;;;;;;;;;;5114735;28;20235;-15
2022/05/22 07:29:10;;;;;;;2.08;1.35;;;;;;;;;;5114016;28;20216;-15
2022/05/22 07:31:38;;;;;;;2.58;1.30;;;;;;;;;;5110511;28;20224;-15
2022/05/22 07:34:05;;;;;;;2.88;1.38;;;;;;;;;;5114520;28;20274;-15
2022/05/22 07:36:34;;;;;;;3.28;1.27;;;;;;;;;;5114470;28;20717;-15
2022/05/22 07:39:02;;;;;;;2.22;1.38;;;;;;;;;;5114601;28;20242;-15
2022/05/22 07:41:30;;;;;;;2.40;1.30;;;;;;;;;;5103870;28;20232;-15
2022/05/22 07:43:58;;;;;;;3.38;1.60;;;;;;;;;;5102305;28;20273;-15
2022/05/22 07:46:25;;;;;;;2.33;1.17;;;;;;;;;;5109047;27;20282;-15
2022/05/22 07:48:53;;;;;;;2.85;1.27;;;;;;;;;;5114303;28;20263;-15
2022/05/22 07:51:20;;;;;;;4.68;1.38;;;;;;;;;;5114163;28;20661;-15
2022/05/22 07:53:50;;;;;;;2.08;1.10;;;;;;;;;;5113148;28;20231;-15
2022/05/22 07:56:21;;;;;;;3.50;1.20;;;;;;;;;;5113532;28;20268;-15
2022/05/22 07:58:48;;;;;;;3.35;1.27;;;;;;;;;;5114002;28;20236;-15
2022/05/22 08:01:15;;;;;;;3.25;1.15;;;;;;;;;;5106666;28;20235;-15
2022/05/22 08:03:43;;;;;;;3.28;1.35;;;;;;;;;;5114080;28;20228;-15
2022/05/22 08:06:10;;;;;;;2.53;1.45;;;;;;;;;;5113871;27;20307;-15
2022/05/22 08:08:38;;;;;;;2.45;1.30;;;;;;;;;;5113949;27;20250;-15
2022/05/22 08:11:11;;;;;;;4.13;1.40;;;;;;;;;;5110401;28;20907;-15
2022/05/22 08:13:39;;;;;;;2.65;1.10;;;;;;;;;;5113916;28;20232;-15
2022/05/22 08:16:06;;;;;;;2.53;1.10;;;;;;;;;;5113846;28;20212;-15
2022/05/22 08:18:34;;;;;;;3.85;1.33;;;;;;;;;;5112596;27;20314;-15
2022/05/22 08:21:02;;;;;;;2.53;0.85;;;;;;;;;;5113389;28;20224;-15
2022/05/22 08:23:29;;;;;;;3.35;1.45;;;;;;;;;;5113930;28;20216;-15
2022/05/22 08:25:57;;;;;;;2.38;1.00;;;;;;;;;;5114066;28;20224;-15
2022/05/22 08:28:25;;;;;;;3.63;1.25;;;;;;;;;;5113862;28;20326;-15
2022/05/22 08:30:53;;;;;;;1.17;0.82;;;;;;;;;;5109461;27;20350;-15
2022/05/22 08:33:20;;;;;;;2.25;1.10;;;;;;;;;;5113187;28;20231;-15
2022/05/22 08:35:48;;;;;;;2.55;1.40;;;;;;;;;;5113637;28;20228;-15
2022/05/22 08:38:15;;;;;;;2.40;1.15;;;;;;;;;;5113336;28;20329;-15
2022/05/22 08:40:45;;;;;;;5.55;1.40;;;;;;;;;;5112781;27;20703;-15
2022/05/22 08:43:13;;;;;;;2.90;1.25;;;;;;;;;;5109358;28;20228;-15
2022/05/22 08:45:43;;;;;;;3.58;1.38;;;;;;;;;;5113168;28;20269;-15
2022/05/22 08:48:13;;;;;;;2.90;1.15;;;;;;;;;;5109904;28;20290;-15
2022/05/22 08:50:40;;;;;;;3.47;1.10;;;;;;;;;;5109530;28;20251;-15
2022/05/22 08:53:09;;;;;;;4.97;1.48;;;;;;;;;;5109477;27;20232;-15
2022/05/22 09:01:11;;;;;;;3.75;1.25;;;;;;;;;;5109020;28;20235;-15
2022/05/22 09:03:39;;;;;;;3.67;1.10;;;;;;;;;;5108577;27;20227;-15
2022/05/22 09:06:07;;;;;;;2.22;1.17;;;;;;;;;;5113195;28;20216;-15
2022/05/22 09:08:36;;;;;;;3.35;1.35;;;;;;;;;;5112315;28;20242;-15
2022/05/22 09:11:05;;;;;;;2.58;1.20;;;;;;;;;;5113353;28;20232;-15
2022/05/22 09:13:32;;;;;;;2.42;1.30;;;;;;;;;;5112809;27;20232;-15
2022/05/22 09:16:06;;;;;;;2.17;0.93;;;;;;;;;;5108865;28;20221;-15
2022/05/22 09:18:35;;;;;;;3.90;1.42;;;;;;;;;;5112159;27;20319;-15
2022/05/22 09:21:06;;;;;;;2.35;1.00;;;;;;;;;;5108208;28;20323;-16
2022/05/22 09:23:41;;;;;;;1.80;0.90;;;;;;;;;;5112701;28;20214;-15
2022/05/22 09:26:09;;;;;;;4.88;1.45;;;;;;;;;;5109148;27;20322;-15
2022/05/22 09:28:39;;;;;;;1.98;0.98;;;;;;;;;;5112761;28;20239;-15
2022/05/22 09:31:09;;;;;;;2.83;1.08;;;;;;;;;;5113138;28;20220;-15
2022/05/22 09:33:39;;;;;;;4.45;1.05;;;;;;;;;;5112046;28;20228;-15
2022/05/22 09:36:11;;;;;;;3.50;1.00;;;;;;;;;;5104556;27;20327;-15
2022/05/22 09:38:48;;;;;;;1.98;1.13;;;;;;;;;;5108683;28;20228;-15
2022/05/22 09:41:18;;;;;;;2.20;1.13;;;;;;;;;;5109328;28;20227;-15
2022/05/22 09:43:50;;;;;;;3.05;1.08;;;;;;;;;;5112432;28;20333;-15
2022/05/22 09:46:20;;;;;;;2.50;1.05;;;;;;;;;;5111365;27;20385;-15
2022/05/22 09:49:00;;;;;;;2.40;1.10;;;;;;;;;;5112712;28;20262;-15
2022/05/22 09:51:30;;;;;;;2.40;1.00;;;;;;;;;;5112233;28;20223;-15
2022/05/22 09:54:02;;;;;;;5.03;1.10;;;;;;;;;;5112624;28;20212;-15
2022/05/22 09:56:52;;;;;;;2.20;0.98;;;;;;;;;;5109828;28;20263;-15
2022/05/22 09:59:23;;;;;;;1.75;0.90;;;;;;;;;;5111082;28;20242;-15
2022/05/22 10:01:52;;;;;;;3.42;1.00;;;;;;;;;;5112202;28;20702;-15
2022/05/22 10:04:24;;;;;;;2.88;1.05;;;;;;;;;;5112046;28;20897;-15
2022/05/22 10:06:53;;;;;;;3.55;1.08;;;;;;;;;;5102406;27;20236;-15
2022/05/22 10:09:26;;;;;;;1.92;1.10;;;;;;;;;;5105952;27;20235;-16
2022/05/22 10:11:57;;;;;;;4.72;1.15;;;;;;;;;;5102081;28;20220;-15
2022/05/22 10:14:44;;;;;;;2.83;0.90;;;;;;;;;;5100270;28;20216;-15
2022/05/22 10:17:14;;;;;;;3.55;1.10;;;;;;;;;;5110203;28;20224;-15
2022/05/22 10:19:44;;;;;;;2.22;0.95;;;;;;;;;;5107780;27;20238;-15
2022/05/22 10:22:13;;;;;;;4.53;1.25;;;;;;;;;;5108019;28;20251;-15
2022/05/22 10:24:51;;;;;;;2.55;0.90;;;;;;;;;;5107651;28;20217;-15
2022/05/22 10:27:22;;;;;;;3.70;1.10;;;;;;;;;;5109218;28;20224;-15
2022/05/22 10:29:50;;;;;;;1.80;0.80;;;;;;;;;;5111960;28;20216;-15
2022/05/22 10:32:17;;;;;;;3.38;1.00;;;;;;;;;;5110954;27;20232;-15
2022/05/22 10:34:46;;;;;;;2.38;1.00;;;;;;;;;;5111784;28;20228;-15
2022/05/22 10:37:21;;;;;;;3.28;1.30;;;;;;;;;;5111956;28;21027;-15
2022/05/22 10:39:48;;;;;;;2.58;1.00;;;;;;;;;;5112129;28;20225;-15
2022/05/22 10:45:03;;;;;;;3.65;1.20;;;;;;;;;;5111769;28;21003;-15
2022/05/22 10:47:31;;;;;;;2.60;0.88;;;;;;;;;;5110720;28;20239;-15
2022/05/22 10:50:00;;;;;;;3.03;1.10;;;;;;;;;;5110669;28;20232;-15
2022/05/22 10:52:30;;;;;;;2.55;0.90;;;;;;;;;;5102650;27;21095;-15
2022/05/22 10:54:58;;;;;;;4.10;1.30;;;;;;;;;;5111368;28;21044;-15
2022/05/22 10:57:30;;;;;;;1.90;0.93;;;;;;;;;;5111581;28;20224;-15
2022/05/22 10:59:57;;;;;;;2.78;0.98;;;;;;;;;;5101032;27;20224;-15
2022/05/22 11:02:29;;;;;;;2.33;1.00;;;;;;;;;;5111519;28;20220;-15
2022/05/22 11:04:57;;;;;;;2.55;0.95;;;;;;;;;;5110923;27;20251;-15
2022/05/22 11:07:30;;;;;;;2.72;0.70;;;;;;;;;;5111366;28;20224;-15
2022/05/22 11:09:58;;;;;;;2.92;0.98;;;;;;;;;;5111100;28;20250;-15
2022/05/22 11:12:25;;;;;;;2.55;0.95;;;;;;;;;;5111145;27;20331;-15
2022/05/22 11:15:03;;;;;;;2.38;1.00;;;;;;;;;;5102490;27;20251;-15
2022/05/22 11:17:31;;;;;;;2.55;1.10;;;;;;;;;;5111182;28;20227;-15
2022/05/22 11:20:08;;;;;;;1.92;0.95;;;;;;;;;;5110883;28;20229;-15
2022/05/22 11:22:38;;;;;;;4.30;1.20;;;;;;;;;;5111199;28;20610;-15
2022/05/22 11:25:12;;;;;;;1.42;1.00;;;;;;;;;;5111350;27;20224;-15
2022/05/22 11:27:51;;;;;;;3.13;0.90;;;;;;;;;;5107816;28;20710;-15
2022/05/22 11:30:20;;;;;;;4.38;1.00;;;;;;;;;;5110930;28;20216;-15
2022/05/22 11:33:01;;;;;;;6.30;1.70;;;;;;;;;;5111027;28;20225;-15
2022/05/22 11:35:32;;;;;;;3.60;1.10;;;;;;;;;;5110758;28;20228;-15
2022/05/22 11:38:12;;;;;;;5.10;1.40;;;;;;;;;;5110561;27;20224;-15
2022/05/22 11:40:41;;;;;;;2.60;0.80;;;;;;;;;;5103209;27;20228;-15
2022/05/22 11:43:12;;;;;;;2.42;1.02;;;;;;;;;;5110196;28;20242;-15
2022/05/22 11:45:41;;;;;;;3.85;1.27;;;;;;;;;;5110872;28;20606;-15
2022/05/22 11:48:12;;;;;;;3.10;1.10;;;;;;;;;;5109937;27;20228;-15
2022/05/22 11:50:39;;;;;;;3.28;1.00;;;;;;;;;;5110293;28;20227;-15
2022/05/22 11:53:22;;;;;;;3.53;1.00;;;;;;;;;;5114198;28;20220;-15
2022/05/22 11:55:55;;;;;;;4.00;0.90;;;;;;;;;;5111880;28;20228;-15
2022/05/22 11:58:26;;;;;;;2.97;0.80;;;;;;;;;;5113635;27;20223;-15
2022/05/22 12:00:57;;;;;;;4.40;1.20;;;;;;;;;;5113856;28;20225;-15
2022/05/22 12:03:39;;;;;;;2.95;1.25;;;;;;;;;;5114392;27;20240;-15
2022/05/22 12:06:09;;;;;;;4.60;0.90;;;;;;;;;;5100442;28;20235;-15
2022/05/22 12:08:47;;;;;;;5.97;1.77;;;;;;;;;;5105901;28;21039;-15
2022/05/22 12:11:15;;;;;;;2.88;1.00;;;;;;;;;;5113194;27;20234;-15
2022/05/22 12:13:45;;;;;;;3.33;1.02;;;;;;;;;;5114181;28;20224;-15
2022/05/22 12:16:13;;;;;;;4.03;1.20;;;;;;;;;;5109576;28;20220;-15
2022/05/22 12:18:45;;;;;;;3.05;0.90;;;;;;;;;;5113790;28;21010;-15
2022/05/22 12:21:14;;;;;;;4.03;0.95;;;;;;;;;;5112776;27;20231;-15
2022/05/22 12:23:45;;;;;;;4.22;1.00;;;;;;;;;;5113833;28;20216;-15
2022/05/22 12:26:13;;;;;;;2.28;0.70;;;;;;;;;;5110175;28;21029;-15
2022/05/22 12:28:43;;;;;;;3.13;0.90;;;;;;;;;;5109580;28;20227;-15
2022/05/22 12:31:12;;;;;;;4.85;1.30;;;;;;;;;;5108355;27;20231;-15
2022/05/22 12:33:39;;;;;;;3.75;0.98;;;;;;;;;;5109258;28;20243;-15
2022/05/22 12:36:07;;;;;;;2.55;0.95;;;;;;;;;;5113584;28;20228;-15
2022/05/22 12:38:36;;;;;;;4.53;1.20;;;;;;;;;;5113715;28;20261;-15
2022/05/22 12:41:05;;;;;;;5.80;1.10;;;;;;;;;;5113471;28;20219;-15
2022/05/22 12:43:32;;;;;;;4.10;1.20;;;;;;;;;;5112801;28;20255;-15
2022/05/22 12:46:03;;;;;;;2.70;1.00;;;;;;;;;;5105895;28;20331;-15
2022/05/22 12:48:36;;;;;;;3.05;1.08;;;;;;;;;;5113357;28;20313;-15
2022/05/22 12:51:08;;;;;;;3.47;1.08;;;;;;;;;;5113536;28;20246;-15
2022/05/22 12:53:35;;;;;;;1.45;1.00;;;;;;;;;;5103451;27;20236;-15
2022/05/22 12:56:05;;;;;;;3.60;1.25;;;;;;;;;;5112804;28;20702;-15
2022/05/22 12:58:35;;;;;;;4.00;1.00;;;;;;;;;;5114895;27;20228;-15
2022/05/22 13:01:04;;;;;;;3.17;1.38;;;;;;;;;;5113227;27;20741;-15
2022/05/22 13:03:36;;;;;;;3.25;1.30;;;;;;;;;;5113123;27;20236;-15
2022/05/22 13:06:04;;;;;;;3.92;1.00;;;;;;;;;;5108778;27;20231;-15
2022/05/22 13:08:39;;;;;;;2.35;0.88;;;;;;;;;;5109001;28;20228;-15
2022/05/22 13:11:08;;;;;;;4.07;1.10;;;;;;;;;;5101294;28;21131;-15
2022/05/22 13:13:55;;;;;;;2.83;1.30;;;;;;;;;;5111509;28;20282;-15
2022/05/22 13:16:26;;;;;;;4.10;1.10;;;;;;;;;;5112439;27;20262;-14
2022/05/22 13:18:53;;;;;;;2.33;0.90;;;;;;;;;;5112658;28;20290;-14
2022/05/22 13:21:29;;;;;;;3.40;1.27;;;;;;;;;;5099294;28;20737;-15
2022/05/22 13:24:01;;;;;;;4.10;1.10;;;;;;;;;;5102335;28;20231;-14
2022/05/22 13:26:29;;;;;;;3.13;0.90;;;;;;;;;;5102533;27;20228;-14
2022/05/22 13:28:58;;;;;;;2.88;1.13;;;;;;;;;;5112736;28;20235;-14
2022/05/22 13:31:37;;;;;;;3.13;0.93;;;;;;;;;;5108276;28;20235;-14
2022/05/22 13:34:07;;;;;;;5.78;1.35;;;;;;;;;;5101155;28;20240;-14
2022/05/22 13:36:42;;;;;;;3.75;1.10;;;;;;;;;;5109322;28;20273;-16
2022/05/22 13:39:14;;;;;;;2.88;1.00;;;;;;;;;;5112127;27;20234;-14
2022/05/22 13:41:47;;;;;;;4.93;1.20;;;;;;;;;;5108979;28;20232;-14
2022/05/22 13:44:29;;;;;;;2.70;1.10;;;;;;;;;;5109313;28;20229;-14
2022/05/22 13:47:03;;;;;;;2.60;0.70;;;;;;;;;;5066771;27;20228;-14
2022/05/22 13:49:35;;;;;;;2.45;1.08;;;;;;;;;;5111739;27;20220;-14
2022/05/22 13:54:49;;;;;;;2.85;0.80;;;;;;;;;;5109995;28;20223;-14
2022/05/22 13:57:17;;;;;;;2.53;0.95;;;;;;;;;;5112241;28;20212;-14
2022/05/22 13:59:45;;;;;;;1.88;0.93;;;;;;;;;;5111481;27;20688;-14
2022/05/22 14:02:15;;;;;;;3.85;1.05;;;;;;;;;;5112449;28;20227;-14
2022/05/22 14:04:43;;;;;;;2.47;1.13;;;;;;;;;;5102942;27;20224;-14
2022/05/22 14:07:10;;;;;;;2.33;1.02;;;;;;;;;;5100195;28;20212;-14
2022/05/22 14:09:38;;;;;;;4.30;0.80;;;;;;;;;;5112104;27;20237;-14
2022/05/22 14:12:07;;;;;;;2.55;1.17;;;;;;;;;;5111159;27;20232;-14
2022/05/22 14:14:39;;;;;;;3.38;1.10;;;;;;;;;;5108087;28;20270;-14
2022/05/22 14:17:07;;;;;;;1.70;0.82;;;;;;;;;;5111917;28;20228;-14
2022/05/22 14:19:36;;;;;;;3.63;0.90;;;;;;;;;;5100587;28;20237;-14
2022/05/22 14:22:07;;;;;;;1.92;0.90;;;;;;;;;;5106548;27;20749;-14
2022/05/22 14:24:52;;;;;;;2.97;1.02;;;;;;;;;;5100376;27;20268;-14
2022/05/22 14:27:28;;;;;;;3.20;0.90;;;;;;;;;;5110444;28;20859;-14
2022/05/22 14:30:06;;;;;;;3.00;1.10;;;;;;;;;;5111849;28;20230;-14
2022/05/22 14:32:39;;;;;;;4.03;0.90;;;;;;;;;;5107493;27;20255;-14
2022/05/22 14:35:11;;;;;;;3.03;1.02;;;;;;;;;;5111652;28;20224;-14
2022/05/22 14:37:39;;;;;;;2.08;0.70;;;;;;;;;;5107195;28;20992;-16
2022/05/22 14:40:07;;;;;;;4.00;1.00;;;;;;;;;;5111574;28;20656;-14
2022/05/22 14:42:34;;;;;;;1.88;0.82;;;;;;;;;;5104133;28;20263;-14
2022/05/22 14:45:03;;;;;;;2.30;0.90;;;;;;;;;;5110252;27;20602;-16
2022/05/22 14:47:31;;;;;;;2.97;1.00;;;;;;;;;;5111632;28;20234;-16
2022/05/22 14:49:58;;;;;;;4.43;1.05;;;;;;;;;;5111844;28;20226;-16
2022/05/22 14:52:28;;;;;;;4.00;0.93;;;;;;;;;;5111291;28;20236;-16
2022/05/22 14:54:56;;;;;;;1.85;0.95;;;;;;;;;;5110558;27;20323;-14
2022/05/22 14:57:37;;;;;;;3.28;0.90;;;;;;;;;;5111576;28;20219;-16
2022/05/22 15:00:26;;;;;;;2.10;0.95;;;;;;;;;;5109777;28;20232;-15
2022/05/22 15:02:54;;;;;;;2.40;1.30;;;;;;;;;;5110767;28;20682;-16
2022/05/22 15:05:22;;;;;;;1.95;0.80;;;;;;;;;;5110601;27;20224;-16
2022/05/22 15:07:52;;;;;;;3.60;1.00;;;;;;;;;;5099438;28;20324;-16
2022/05/22 15:10:21;;;;;;;3.22;0.85;;;;;;;;;;5111406;27;20212;-16
2022/05/22 15:12:49;;;;;;;1.95;1.00;;;;;;;;;;5111502;28;20231;-16